sensor_id;sensor_type;location;lat;lon;timestamp;P1;durP1;ratioP1;P2;durP2;ratioP2
41946;SDS011;27638;42.184;24.848;2023-03-26T00:00:53;33.88;;;19.50;;
41946;SDS011;27638;42.184;24.848;2023-03-26T00:03:19;23.67;;;14.48;;
41946;SDS011;27638;42.184;24.848;2023-03-26T00:05:46;18.73;;;12.13;;
41946;SDS011;27638;42.184;24.848;2023-03-26T00:08:12;13.32;;;9.90;;
41946;SDS011;27638;42.184;24.848;2023-03-26T00:10:39;11.02;;;7.90;;
41946;SDS011;27638;42.184;24.848;2023-03-26T00:13:05;10.40;;;8.27;;
41946;SDS011;27638;42.184;24.848;2023-03-26T00:15:32;8.63;;;7.72;;
41946;SDS011;27638;42.184;24.848;2023-03-26T00:17:58;11.73;;;8.48;;
41946;SDS011;27638;42.184;24.848;2023-03-26T00:20:28;10.38;;;8.77;;
41946;SDS011;27638;42.184;24.848;2023-03-26T00:22:54;13.30;;;9.27;;
41946;SDS011;27638;42.184;24.848;2023-03-26T00:25:23;15.48;;;9.60;;
41946;SDS011;27638;42.184;24.848;2023-03-26T00:27:49;14.23;;;9.60;;
41946;SDS011;27638;42.184;24.848;2023-03-26T00:30:14;13.07;;;9.10;;
41946;SDS011;27638;42.184;24.848;2023-03-26T00:32:40;14.30;;;9.88;;
41946;SDS011;27638;42.184;24.848;2023-03-26T00:35:06;13.43;;;9.68;;
41946;SDS011;27638;42.184;24.848;2023-03-26T00:37:32;11.48;;;9.55;;
41946;SDS011;27638;42.184;24.848;2023-03-26T00:39:57;13.80;;;9.68;;
41946;SDS011;27638;42.184;24.848;2023-03-26T00:42:26;13.20;;;9.38;;
41946;SDS011;27638;42.184;24.848;2023-03-26T00:44:52;12.00;;;8.70;;
41946;SDS011;27638;42.184;24.848;2023-03-26T00:47:25;12.85;;;9.75;;
41946;SDS011;27638;42.184;24.848;2023-03-26T00:49:52;11.95;;;9.10;;
41946;SDS011;27638;42.184;24.848;2023-03-26T00:52:18;11.60;;;9.57;;
41946;SDS011;27638;42.184;24.848;2023-03-26T00:54:44;13.00;;;9.35;;
41946;SDS011;27638;42.184;24.848;2023-03-26T00:57:11;13.43;;;10.00;;
41946;SDS011;27638;42.184;24.848;2023-03-26T00:59:37;10.82;;;9.30;;
41946;SDS011;27638;42.184;24.848;2023-03-26T01:02:03;12.68;;;9.48;;
41946;SDS011;27638;42.184;24.848;2023-03-26T01:04:30;12.18;;;9.98;;
41946;SDS011;27638;42.184;24.848;2023-03-26T01:07:00;14.35;;;9.90;;
41946;SDS011;27638;42.184;24.848;2023-03-26T01:09:35;14.10;;;9.93;;
41946;SDS011;27638;42.184;24.848;2023-03-26T01:12:07;21.20;;;15.52;;
41946;SDS011;27638;42.184;24.848;2023-03-26T01:14:36;17.48;;;13.10;;
41946;SDS011;27638;42.184;24.848;2023-03-26T01:17:03;15.70;;;11.85;;
41946;SDS011;27638;42.184;24.848;2023-03-26T01:19:43;15.20;;;11.85;;
41946;SDS011;27638;42.184;24.848;2023-03-26T01:22:29;17.90;;;12.18;;
41946;SDS011;27638;42.184;24.848;2023-03-26T01:24:55;13.88;;;11.13;;
41946;SDS011;27638;42.184;24.848;2023-03-26T01:27:28;16.42;;;12.10;;
41946;SDS011;27638;42.184;24.848;2023-03-26T01:30:04;15.73;;;12.02;;
41946;SDS011;27638;42.184;24.848;2023-03-26T01:44:49;18.08;;;12.55;;
41946;SDS011;27638;42.184;24.848;2023-03-26T01:46:59;14.98;;;11.63;;
41946;SDS011;27638;42.184;24.848;2023-03-26T01:49:26;14.93;;;11.65;;
41946;SDS011;27638;42.184;24.848;2023-03-26T01:51:53;15.25;;;11.13;;
41946;SDS011;27638;42.184;24.848;2023-03-26T01:54:21;13.45;;;10.35;;
41946;SDS011;27638;42.184;24.848;2023-03-26T02:02:25;14.48;;;10.38;;
41946;SDS011;27638;42.184;24.848;2023-03-26T02:10:34;11.57;;;8.68;;
41946;SDS011;27638;42.184;24.848;2023-03-26T02:13:12;10.90;;;8.68;;
41946;SDS011;27638;42.184;24.848;2023-03-26T02:15:43;12.15;;;8.55;;
41946;SDS011;27638;42.184;24.848;2023-03-26T02:18:22;10.07;;;8.15;;
41946;SDS011;27638;42.184;24.848;2023-03-26T02:20:51;11.18;;;8.00;;
41946;SDS011;27638;42.184;24.848;2023-03-26T02:23:18;8.85;;;6.20;;
41946;SDS011;27638;42.184;24.848;2023-03-26T02:25:44;7.70;;;6.55;;
41946;SDS011;27638;42.184;24.848;2023-03-26T02:28:10;8.13;;;5.70;;
41946;SDS011;27638;42.184;24.848;2023-03-26T02:30:35;7.45;;;6.15;;
41946;SDS011;27638;42.184;24.848;2023-03-26T02:33:01;7.60;;;5.82;;
41946;SDS011;27638;42.184;24.848;2023-03-26T02:35:27;7.50;;;5.40;;
41946;SDS011;27638;42.184;24.848;2023-03-26T02:37:53;10.02;;;6.65;;
41946;SDS011;27638;42.184;24.848;2023-03-26T02:40:18;7.03;;;5.60;;
41946;SDS011;27638;42.184;24.848;2023-03-26T02:42:46;8.23;;;5.82;;
41946;SDS011;27638;42.184;24.848;2023-03-26T02:45:12;6.88;;;5.30;;
41946;SDS011;27638;42.184;24.848;2023-03-26T02:47:37;4.93;;;4.30;;
41946;SDS011;27638;42.184;24.848;2023-03-26T02:50:03;7.38;;;4.63;;
41946;SDS011;27638;42.184;24.848;2023-03-26T02:52:28;5.70;;;4.47;;
41946;SDS011;27638;42.184;24.848;2023-03-26T02:54:54;5.32;;;4.60;;
41946;SDS011;27638;42.184;24.848;2023-03-26T02:57:20;6.47;;;4.47;;
41946;SDS011;27638;42.184;24.848;2023-03-26T02:59:46;4.30;;;3.20;;
41946;SDS011;27638;42.184;24.848;2023-03-26T03:02:14;4.93;;;3.10;;
41946;SDS011;27638;42.184;24.848;2023-03-26T03:04:40;2.95;;;2.63;;
41946;SDS011;27638;42.184;24.848;2023-03-26T03:07:06;3.85;;;2.83;;
41946;SDS011;27638;42.184;24.848;2023-03-26T03:09:32;2.53;;;2.33;;
41946;SDS011;27638;42.184;24.848;2023-03-26T03:11:58;4.13;;;2.53;;
41946;SDS011;27638;42.184;24.848;2023-03-26T03:14:24;4.32;;;2.58;;
41946;SDS011;27638;42.184;24.848;2023-03-26T03:16:49;2.45;;;2.20;;
41946;SDS011;27638;42.184;24.848;2023-03-26T03:19:15;2.15;;;1.95;;
41946;SDS011;27638;42.184;24.848;2023-03-26T03:21:41;2.75;;;2.10;;
41946;SDS011;27638;42.184;24.848;2023-03-26T03:24:07;3.83;;;2.35;;
41946;SDS011;27638;42.184;24.848;2023-03-26T03:26:32;2.92;;;2.15;;
41946;SDS011;27638;42.184;24.848;2023-03-26T03:28:58;2.65;;;1.98;;
41946;SDS011;27638;42.184;24.848;2023-03-26T03:31:24;2.80;;;2.10;;
41946;SDS011;27638;42.184;24.848;2023-03-26T03:33:50;2.78;;;2.28;;
41946;SDS011;27638;42.184;24.848;2023-03-26T03:36:17;2.45;;;2.00;;
41946;SDS011;27638;42.184;24.848;2023-03-26T03:38:46;2.80;;;2.15;;
41946;SDS011;27638;42.184;24.848;2023-03-26T03:41:12;3.05;;;2.20;;
41946;SDS011;27638;42.184;24.848;2023-03-26T03:43:38;2.50;;;2.30;;
41946;SDS011;27638;42.184;24.848;2023-03-26T03:46:03;2.30;;;2.10;;
41946;SDS011;27638;42.184;24.848;2023-03-26T03:48:29;3.95;;;2.38;;
41946;SDS011;27638;42.184;24.848;2023-03-26T03:50:55;4.13;;;3.25;;
41946;SDS011;27638;42.184;24.848;2023-03-26T03:53:21;7.63;;;4.90;;
41946;SDS011;27638;42.184;24.848;2023-03-26T03:55:51;4.30;;;3.05;;
41946;SDS011;27638;42.184;24.848;2023-03-26T03:58:21;3.58;;;2.20;;
41946;SDS011;27638;42.184;24.848;2023-03-26T04:00:48;1.73;;;1.63;;
41946;SDS011;27638;42.184;24.848;2023-03-26T04:03:18;2.65;;;1.60;;
41946;SDS011;27638;42.184;24.848;2023-03-26T04:05:44;1.60;;;1.35;;
41946;SDS011;27638;42.184;24.848;2023-03-26T04:08:16;1.85;;;1.50;;
41946;SDS011;27638;42.184;24.848;2023-03-26T04:10:42;2.80;;;1.30;;
41946;SDS011;27638;42.184;24.848;2023-03-26T04:13:09;1.67;;;1.33;;
41946;SDS011;27638;42.184;24.848;2023-03-26T04:15:36;1.40;;;1.30;;
41946;SDS011;27638;42.184;24.848;2023-03-26T04:18:01;1.40;;;1.30;;
41946;SDS011;27638;42.184;24.848;2023-03-26T04:20:27;1.40;;;1.30;;
41946;SDS011;27638;42.184;24.848;2023-03-26T04:22:53;2.00;;;1.10;;
41946;SDS011;27638;42.184;24.848;2023-03-26T04:25:18;3.08;;;1.60;;
41946;SDS011;27638;42.184;24.848;2023-03-26T04:27:45;1.42;;;1.30;;
41946;SDS011;27638;42.184;24.848;2023-03-26T04:30:15;1.30;;;1.20;;
41946;SDS011;27638;42.184;24.848;2023-03-26T04:32:44;1.52;;;1.27;;
41946;SDS011;27638;42.184;24.848;2023-03-26T04:35:11;1.50;;;1.08;;
41946;SDS011;27638;42.184;24.848;2023-03-26T04:37:40;2.40;;;1.70;;
41946;SDS011;27638;42.184;24.848;2023-03-26T04:40:18;1.52;;;1.27;;
41946;SDS011;27638;42.184;24.848;2023-03-26T04:42:46;3.42;;;1.90;;
41946;SDS011;27638;42.184;24.848;2023-03-26T04:45:12;5.47;;;3.70;;
41946;SDS011;27638;42.184;24.848;2023-03-26T04:47:39;1.77;;;1.60;;
41946;SDS011;27638;42.184;24.848;2023-03-26T04:50:08;4.15;;;1.80;;
41946;SDS011;27638;42.184;24.848;2023-03-26T04:52:34;4.18;;;1.55;;
41946;SDS011;27638;42.184;24.848;2023-03-26T04:55:01;2.63;;;1.77;;
41946;SDS011;27638;42.184;24.848;2023-03-26T04:57:37;3.38;;;1.30;;
41946;SDS011;27638;42.184;24.848;2023-03-26T05:00:10;1.42;;;1.05;;
41946;SDS011;27638;42.184;24.848;2023-03-26T05:02:42;1.98;;;1.05;;
41946;SDS011;27638;42.184;24.848;2023-03-26T05:05:08;1.17;;;1.08;;
41946;SDS011;27638;42.184;24.848;2023-03-26T05:07:34;1.70;;;1.08;;
41946;SDS011;27638;42.184;24.848;2023-03-26T05:10:00;1.50;;;1.10;;
41946;SDS011;27638;42.184;24.848;2023-03-26T05:12:30;1.65;;;1.20;;
41946;SDS011;27638;42.184;24.848;2023-03-26T05:14:55;2.10;;;1.60;;
41946;SDS011;27638;42.184;24.848;2023-03-26T05:17:21;1.45;;;1.35;;
41946;SDS011;27638;42.184;24.848;2023-03-26T05:19:48;1.60;;;1.25;;
41946;SDS011;27638;42.184;24.848;2023-03-26T05:22:16;3.60;;;1.80;;
41946;SDS011;27638;42.184;24.848;2023-03-26T05:24:41;2.20;;;1.23;;
41946;SDS011;27638;42.184;24.848;2023-03-26T05:27:07;3.35;;;1.30;;
41946;SDS011;27638;42.184;24.848;2023-03-26T05:29:33;1.58;;;1.48;;
41946;SDS011;27638;42.184;24.848;2023-03-26T05:31:58;2.22;;;1.30;;
41946;SDS011;27638;42.184;24.848;2023-03-26T05:34:24;2.45;;;1.35;;
41946;SDS011;27638;42.184;24.848;2023-03-26T05:36:51;1.20;;;1.02;;
41946;SDS011;27638;42.184;24.848;2023-03-26T05:39:17;1.73;;;1.23;;
41946;SDS011;27638;42.184;24.848;2023-03-26T05:41:42;1.33;;;1.23;;
41946;SDS011;27638;42.184;24.848;2023-03-26T05:44:08;3.17;;;1.17;;
41946;SDS011;27638;42.184;24.848;2023-03-26T05:46:33;1.20;;;1.10;;
41946;SDS011;27638;42.184;24.848;2023-03-26T05:48:58;1.50;;;1.20;;
41946;SDS011;27638;42.184;24.848;2023-03-26T05:51:24;3.30;;;1.45;;
41946;SDS011;27638;42.184;24.848;2023-03-26T05:53:49;1.42;;;1.13;;
41946;SDS011;27638;42.184;24.848;2023-03-26T05:56:15;1.77;;;1.17;;
41946;SDS011;27638;42.184;24.848;2023-03-26T05:58:41;1.65;;;1.00;;
41946;SDS011;27638;42.184;24.848;2023-03-26T06:01:08;1.63;;;1.00;;
41946;SDS011;27638;42.184;24.848;2023-03-26T06:03:40;1.20;;;1.00;;
41946;SDS011;27638;42.184;24.848;2023-03-26T06:06:10;1.25;;;1.15;;
41946;SDS011;27638;42.184;24.848;2023-03-26T06:08:47;1.85;;;1.20;;
41946;SDS011;27638;42.184;24.848;2023-03-26T06:11:15;1.33;;;1.10;;
41946;SDS011;27638;42.184;24.848;2023-03-26T06:13:42;3.03;;;1.45;;
41946;SDS011;27638;42.184;24.848;2023-03-26T06:16:08;1.52;;;1.00;;
41946;SDS011;27638;42.184;24.848;2023-03-26T06:18:35;2.97;;;1.42;;
41946;SDS011;27638;42.184;24.848;2023-03-26T06:21:01;1.33;;;1.05;;
41946;SDS011;27638;42.184;24.848;2023-03-26T06:23:27;0.75;;;0.73;;
41946;SDS011;27638;42.184;24.848;2023-03-26T06:25:53;1.50;;;0.90;;
41946;SDS011;27638;42.184;24.848;2023-03-26T06:28:18;1.90;;;0.80;;
41946;SDS011;27638;42.184;24.848;2023-03-26T06:30:44;1.25;;;1.00;;
41946;SDS011;27638;42.184;24.848;2023-03-26T06:33:09;2.88;;;1.40;;
41946;SDS011;27638;42.184;24.848;2023-03-26T06:35:35;3.15;;;1.02;;
41946;SDS011;27638;42.184;24.848;2023-03-26T06:38:01;2.05;;;1.00;;
41946;SDS011;27638;42.184;24.848;2023-03-26T06:40:27;1.75;;;0.93;;
41946;SDS011;27638;42.184;24.848;2023-03-26T06:42:53;0.82;;;0.80;;
41946;SDS011;27638;42.184;24.848;2023-03-26T06:45:20;1.52;;;0.80;;
41946;SDS011;27638;42.184;24.848;2023-03-26T06:47:45;3.17;;;1.20;;
41946;SDS011;27638;42.184;24.848;2023-03-26T06:50:11;1.67;;;1.00;;
41946;SDS011;27638;42.184;24.848;2023-03-26T06:52:37;1.42;;;1.02;;
41946;SDS011;27638;42.184;24.848;2023-03-26T06:55:03;1.88;;;1.10;;
41946;SDS011;27638;42.184;24.848;2023-03-26T06:57:30;2.63;;;1.40;;
41946;SDS011;27638;42.184;24.848;2023-03-26T06:59:56;2.67;;;0.95;;
41946;SDS011;27638;42.184;24.848;2023-03-26T07:02:22;1.67;;;1.10;;
41946;SDS011;27638;42.184;24.848;2023-03-26T07:04:47;2.08;;;0.60;;
41946;SDS011;27638;42.184;24.848;2023-03-26T07:07:13;1.88;;;0.85;;
41946;SDS011;27638;42.184;24.848;2023-03-26T07:09:38;2.25;;;0.90;;
41946;SDS011;27638;42.184;24.848;2023-03-26T07:12:04;2.35;;;1.40;;
41946;SDS011;27638;42.184;24.848;2023-03-26T07:14:29;1.33;;;1.20;;
41946;SDS011;27638;42.184;24.848;2023-03-26T07:16:57;2.80;;;1.23;;
41946;SDS011;27638;42.184;24.848;2023-03-26T07:19:22;2.92;;;1.05;;
41946;SDS011;27638;42.184;24.848;2023-03-26T07:21:48;2.20;;;1.15;;
41946;SDS011;27638;42.184;24.848;2023-03-26T07:24:14;7.20;;;1.70;;
41946;SDS011;27638;42.184;24.848;2023-03-26T07:32:24;1.23;;;0.88;;
41946;SDS011;27638;42.184;24.848;2023-03-26T07:35:07;1.70;;;0.93;;
41946;SDS011;27638;42.184;24.848;2023-03-26T07:45:45;2.22;;;0.80;;
41946;SDS011;27638;42.184;24.848;2023-03-26T07:48:20;0.77;;;0.75;;
41946;SDS011;27638;42.184;24.848;2023-03-26T07:50:51;1.55;;;0.82;;
41946;SDS011;27638;42.184;24.848;2023-03-26T07:53:20;1.77;;;1.10;;
41946;SDS011;27638;42.184;24.848;2023-03-26T07:56:01;1.58;;;0.95;;
41946;SDS011;27638;42.184;24.848;2023-03-26T08:17:36;2.38;;;1.10;;
41946;SDS011;27638;42.184;24.848;2023-03-26T08:22:37;3.30;;;1.20;;
41946;SDS011;27638;42.184;24.848;2023-03-26T08:30:29;1.35;;;1.25;;
41946;SDS011;27638;42.184;24.848;2023-03-26T08:32:56;1.77;;;1.10;;
41946;SDS011;27638;42.184;24.848;2023-03-26T08:35:24;2.65;;;1.35;;
41946;SDS011;27638;42.184;24.848;2023-03-26T08:37:51;2.15;;;1.23;;
41946;SDS011;27638;42.184;24.848;2023-03-26T08:40:43;1.58;;;1.02;;
41946;SDS011;27638;42.184;24.848;2023-03-26T09:13:05;1.08;;;0.98;;
41946;SDS011;27638;42.184;24.848;2023-03-26T09:40:31;2.13;;;0.93;;
41946;SDS011;27638;42.184;24.848;2023-03-26T10:07:45;1.95;;;0.85;;
41946;SDS011;27638;42.184;24.848;2023-03-26T10:10:36;1.77;;;1.33;;
41946;SDS011;27638;42.184;24.848;2023-03-26T10:15:56;1.23;;;1.08;;
41946;SDS011;27638;42.184;24.848;2023-03-26T10:32:35;1.50;;;0.80;;
41946;SDS011;27638;42.184;24.848;2023-03-26T10:37:53;0.90;;;0.60;;
41946;SDS011;27638;42.184;24.848;2023-03-26T10:53:57;0.65;;;0.60;;
41946;SDS011;27638;42.184;24.848;2023-03-26T10:56:32;1.73;;;0.90;;
41946;SDS011;27638;42.184;24.848;2023-03-26T10:59:07;0.70;;;0.68;;
41946;SDS011;27638;42.184;24.848;2023-03-26T11:01:45;0.95;;;0.90;;
41946;SDS011;27638;42.184;24.848;2023-03-26T11:04:35;2.15;;;0.73;;
41946;SDS011;27638;42.184;24.848;2023-03-26T11:07:37;2.55;;;0.50;;
41946;SDS011;27638;42.184;24.848;2023-03-26T11:15:20;2.95;;;0.82;;
41946;SDS011;27638;42.184;24.848;2023-03-26T11:20:37;2.72;;;0.70;;
41946;SDS011;27638;42.184;24.848;2023-03-26T11:31:13;0.43;;;0.43;;
41946;SDS011;27638;42.184;24.848;2023-03-26T11:33:42;1.02;;;0.52;;
41946;SDS011;27638;42.184;24.848;2023-03-26T11:38:46;1.08;;;0.60;;
41946;SDS011;27638;42.184;24.848;2023-03-26T11:41:17;0.73;;;0.60;;
41946;SDS011;27638;42.184;24.848;2023-03-26T11:43:48;0.65;;;0.57;;
41946;SDS011;27638;42.184;24.848;2023-03-26T11:46:19;0.77;;;0.75;;
41946;SDS011;27638;42.184;24.848;2023-03-26T11:48:51;1.58;;;0.73;;
41946;SDS011;27638;42.184;24.848;2023-03-26T11:54:19;0.88;;;0.70;;
41946;SDS011;27638;42.184;24.848;2023-03-26T11:56:50;0.50;;;0.50;;
41946;SDS011;27638;42.184;24.848;2023-03-26T11:59:20;0.60;;;0.57;;
41946;SDS011;27638;42.184;24.848;2023-03-26T12:09:58;0.82;;;0.40;;
41946;SDS011;27638;42.184;24.848;2023-03-26T12:12:28;0.80;;;0.50;;
41946;SDS011;27638;42.184;24.848;2023-03-26T12:14:57;2.38;;;0.73;;
41946;SDS011;27638;42.184;24.848;2023-03-26T12:17:33;0.77;;;0.50;;
41946;SDS011;27638;42.184;24.848;2023-03-26T12:20:01;0.40;;;0.40;;
41946;SDS011;27638;42.184;24.848;2023-03-26T12:22:46;1.15;;;0.60;;
41946;SDS011;27638;42.184;24.848;2023-03-26T12:27:42;0.98;;;0.60;;
41946;SDS011;27638;42.184;24.848;2023-03-26T12:30:29;3.30;;;0.70;;
41946;SDS011;27638;42.184;24.848;2023-03-26T12:33:01;0.82;;;0.60;;
41946;SDS011;27638;42.184;24.848;2023-03-26T12:35:31;0.73;;;0.70;;
41946;SDS011;27638;42.184;24.848;2023-03-26T12:41:14;0.95;;;0.60;;
41946;SDS011;27638;42.184;24.848;2023-03-26T12:46:39;1.45;;;0.70;;
41946;SDS011;27638;42.184;24.848;2023-03-26T12:49:00;0.70;;;0.70;;
41946;SDS011;27638;42.184;24.848;2023-03-26T12:59:48;1.20;;;1.08;;
41946;SDS011;27638;42.184;24.848;2023-03-26T13:18:49;2.08;;;1.40;;
41946;SDS011;27638;42.184;24.848;2023-03-26T13:26:54;0.95;;;0.80;;
41946;SDS011;27638;42.184;24.848;2023-03-26T13:29:54;0.98;;;0.77;;
41946;SDS011;27638;42.184;24.848;2023-03-26T13:35:11;2.47;;;0.90;;
41946;SDS011;27638;42.184;24.848;2023-03-26T13:37:51;1.63;;;0.93;;
41946;SDS011;27638;42.184;24.848;2023-03-26T13:46:01;1.50;;;0.98;;
41946;SDS011;27638;42.184;24.848;2023-03-26T13:48:40;1.33;;;0.80;;
41946;SDS011;27638;42.184;24.848;2023-03-26T13:56:22;1.50;;;0.77;;
41946;SDS011;27638;42.184;24.848;2023-03-26T13:59:05;1.27;;;1.00;;
41946;SDS011;27638;42.184;24.848;2023-03-26T14:01:38;1.00;;;0.70;;
41946;SDS011;27638;42.184;24.848;2023-03-26T14:06:57;1.77;;;0.90;;
41946;SDS011;27638;42.184;24.848;2023-03-26T14:09:44;1.65;;;1.20;;
41946;SDS011;27638;42.184;24.848;2023-03-26T14:17:33;2.63;;;1.15;;
41946;SDS011;27638;42.184;24.848;2023-03-26T14:31:06;2.63;;;1.13;;
41946;SDS011;27638;42.184;24.848;2023-03-26T14:34:00;2.50;;;1.25;;
41946;SDS011;27638;42.184;24.848;2023-03-26T14:41:55;1.05;;;0.93;;
41946;SDS011;27638;42.184;24.848;2023-03-26T14:44:46;4.05;;;0.93;;
41946;SDS011;27638;42.184;24.848;2023-03-26T14:47:34;5.55;;;1.17;;
41946;SDS011;27638;42.184;24.848;2023-03-26T14:53:17;1.77;;;0.90;;
41946;SDS011;27638;42.184;24.848;2023-03-26T14:59:00;1.08;;;0.80;;
41946;SDS011;27638;42.184;24.848;2023-03-26T15:35:13;1.75;;;1.20;;
41946;SDS011;27638;42.184;24.848;2023-03-26T15:46:30;2.72;;;1.50;;
41946;SDS011;27638;42.184;24.848;2023-03-26T15:57:47;1.90;;;0.90;;
41946;SDS011;27638;42.184;24.848;2023-03-26T16:00:24;3.33;;;1.20;;
41946;SDS011;27638;42.184;24.848;2023-03-26T16:11:01;4.40;;;1.10;;
41946;SDS011;27638;42.184;24.848;2023-03-26T16:29:14;1.63;;;0.70;;
41946;SDS011;27638;42.184;24.848;2023-03-26T16:32:28;1.48;;;0.52;;
41946;SDS011;27638;42.184;24.848;2023-03-26T16:34:48;10.40;;;6.80;;
41946;SDS011;27638;42.184;24.848;2023-03-26T16:51:00;18.42;;;5.70;;
41946;SDS011;27638;42.184;24.848;2023-03-26T16:59:05;7.20;;;2.38;;
41946;SDS011;27638;42.184;24.848;2023-03-26T17:01:52;2.08;;;0.80;;
41946;SDS011;27638;42.184;24.848;2023-03-26T17:04:26;2.92;;;1.80;;
41946;SDS011;27638;42.184;24.848;2023-03-26T17:07:31;3.08;;;1.70;;
41946;SDS011;27638;42.184;24.848;2023-03-26T17:10:01;3.67;;;3.30;;
41946;SDS011;27638;42.184;24.848;2023-03-26T17:12:39;2.80;;;1.70;;
41946;SDS011;27638;42.184;24.848;2023-03-26T17:18:16;5.68;;;2.40;;
41946;SDS011;27638;42.184;24.848;2023-03-26T17:42:29;22.52;;;11.68;;
41946;SDS011;27638;42.184;24.848;2023-03-26T17:47:39;33.10;;;15.70;;
41946;SDS011;27638;42.184;24.848;2023-03-26T17:52:44;21.52;;;12.13;;
41946;SDS011;27638;42.184;24.848;2023-03-26T17:55:14;19.23;;;10.63;;
41946;SDS011;27638;42.184;24.848;2023-03-26T17:57:44;21.92;;;15.68;;
41946;SDS011;27638;42.184;24.848;2023-03-26T18:00:21;20.50;;;13.23;;
41946;SDS011;27638;42.184;24.848;2023-03-26T18:02:54;27.63;;;16.25;;
41946;SDS011;27638;42.184;24.848;2023-03-26T18:05:38;35.88;;;21.23;;
41946;SDS011;27638;42.184;24.848;2023-03-26T18:16:39;22.23;;;14.30;;
41946;SDS011;27638;42.184;24.848;2023-03-26T18:19:09;17.48;;;9.88;;
41946;SDS011;27638;42.184;24.848;2023-03-26T18:21:43;17.50;;;10.88;;
41946;SDS011;27638;42.184;24.848;2023-03-26T18:24:15;20.35;;;11.15;;
41946;SDS011;27638;42.184;24.848;2023-03-26T18:26:55;18.98;;;12.40;;
41946;SDS011;27638;42.184;24.848;2023-03-26T18:29:44;18.60;;;10.77;;
41946;SDS011;27638;42.184;24.848;2023-03-26T18:32:27;19.50;;;11.83;;
41946;SDS011;27638;42.184;24.848;2023-03-26T18:34:58;21.77;;;9.93;;
41946;SDS011;27638;42.184;24.848;2023-03-26T18:37:31;16.52;;;9.60;;
41946;SDS011;27638;42.184;24.848;2023-03-26T18:40:00;16.55;;;9.85;;
41946;SDS011;27638;42.184;24.848;2023-03-26T18:42:35;12.27;;;6.95;;
41946;SDS011;27638;42.184;24.848;2023-03-26T18:45:04;15.70;;;8.82;;
41946;SDS011;27638;42.184;24.848;2023-03-26T18:47:33;14.60;;;8.32;;
41946;SDS011;27638;42.184;24.848;2023-03-26T18:50:00;14.43;;;8.45;;
41946;SDS011;27638;42.184;24.848;2023-03-26T18:52:27;13.85;;;8.15;;
41946;SDS011;27638;42.184;24.848;2023-03-26T18:54:55;15.30;;;8.00;;
41946;SDS011;27638;42.184;24.848;2023-03-26T18:57:24;12.20;;;7.60;;
41946;SDS011;27638;42.184;24.848;2023-03-26T18:59:51;12.95;;;8.30;;
41946;SDS011;27638;42.184;24.848;2023-03-26T19:02:18;8.23;;;5.05;;
41946;SDS011;27638;42.184;24.848;2023-03-26T19:04:45;9.07;;;6.97;;
41946;SDS011;27638;42.184;24.848;2023-03-26T19:07:14;11.27;;;5.72;;
41946;SDS011;27638;42.184;24.848;2023-03-26T19:09:46;8.90;;;4.53;;
41946;SDS011;27638;42.184;24.848;2023-03-26T19:12:17;10.35;;;6.28;;
41946;SDS011;27638;42.184;24.848;2023-03-26T19:14:51;8.02;;;6.05;;
41946;SDS011;27638;42.184;24.848;2023-03-26T19:17:18;10.50;;;6.07;;
41946;SDS011;27638;42.184;24.848;2023-03-26T19:19:45;9.90;;;5.90;;
41946;SDS011;27638;42.184;24.848;2023-03-26T19:22:11;15.88;;;9.43;;
41946;SDS011;27638;42.184;24.848;2023-03-26T19:24:36;17.13;;;8.82;;
41946;SDS011;27638;42.184;24.848;2023-03-26T19:27:04;17.63;;;9.93;;
41946;SDS011;27638;42.184;24.848;2023-03-26T19:29:32;13.05;;;7.25;;
41946;SDS011;27638;42.184;24.848;2023-03-26T19:32:04;14.20;;;8.10;;
41946;SDS011;27638;42.184;24.848;2023-03-26T19:34:39;12.23;;;7.88;;
41946;SDS011;27638;42.184;24.848;2023-03-26T19:40:22;11.85;;;6.43;;
41946;SDS011;27638;42.184;24.848;2023-03-26T19:42:55;12.90;;;7.03;;
41946;SDS011;27638;42.184;24.848;2023-03-26T19:45:21;10.63;;;5.30;;
41946;SDS011;27638;42.184;24.848;2023-03-26T19:47:50;8.40;;;5.20;;
41946;SDS011;27638;42.184;24.848;2023-03-26T19:50:22;11.27;;;4.38;;
41946;SDS011;27638;42.184;24.848;2023-03-26T19:55:38;12.43;;;6.72;;
41946;SDS011;27638;42.184;24.848;2023-03-26T19:58:07;14.60;;;7.57;;
41946;SDS011;27638;42.184;24.848;2023-03-26T20:00:34;12.98;;;7.22;;
41946;SDS011;27638;42.184;24.848;2023-03-26T20:02:59;11.38;;;6.72;;
41946;SDS011;27638;42.184;24.848;2023-03-26T20:05:26;19.75;;;8.70;;
41946;SDS011;27638;42.184;24.848;2023-03-26T20:07:57;19.98;;;10.85;;
41946;SDS011;27638;42.184;24.848;2023-03-26T20:10:24;16.92;;;9.77;;
41946;SDS011;27638;42.184;24.848;2023-03-26T20:12:51;19.30;;;10.05;;
41946;SDS011;27638;42.184;24.848;2023-03-26T20:15:23;18.08;;;10.60;;
41946;SDS011;27638;42.184;24.848;2023-03-26T20:17:52;17.60;;;9.25;;
41946;SDS011;27638;42.184;24.848;2023-03-26T20:20:19;17.77;;;8.93;;
41946;SDS011;27638;42.184;24.848;2023-03-26T20:22:52;13.95;;;7.78;;
41946;SDS011;27638;42.184;24.848;2023-03-26T20:25:25;13.93;;;7.07;;
41946;SDS011;27638;42.184;24.848;2023-03-26T20:27:53;13.95;;;7.20;;
41946;SDS011;27638;42.184;24.848;2023-03-26T20:30:20;10.35;;;6.72;;
41946;SDS011;27638;42.184;24.848;2023-03-26T20:32:46;11.00;;;6.60;;
41946;SDS011;27638;42.184;24.848;2023-03-26T20:35:14;10.02;;;5.97;;
41946;SDS011;27638;42.184;24.848;2023-03-26T20:37:48;9.77;;;6.07;;
41946;SDS011;27638;42.184;24.848;2023-03-26T20:40:14;7.15;;;4.90;;
41946;SDS011;27638;42.184;24.848;2023-03-26T20:42:40;8.82;;;5.10;;
41946;SDS011;27638;42.184;24.848;2023-03-26T20:45:18;10.30;;;4.63;;
41946;SDS011;27638;42.184;24.848;2023-03-26T20:47:46;8.52;;;4.57;;
41946;SDS011;27638;42.184;24.848;2023-03-26T20:50:16;9.60;;;5.25;;
41946;SDS011;27638;42.184;24.848;2023-03-26T20:52:46;9.07;;;4.90;;
41946;SDS011;27638;42.184;24.848;2023-03-26T20:55:14;10.05;;;4.32;;
41946;SDS011;27638;42.184;24.848;2023-03-26T20:57:41;12.32;;;4.90;;
41946;SDS011;27638;42.184;24.848;2023-03-26T21:00:09;7.80;;;4.40;;
41946;SDS011;27638;42.184;24.848;2023-03-26T21:02:46;9.05;;;4.57;;
41946;SDS011;27638;42.184;24.848;2023-03-26T21:05:16;8.20;;;4.20;;
41946;SDS011;27638;42.184;24.848;2023-03-26T21:07:48;8.05;;;4.03;;
41946;SDS011;27638;42.184;24.848;2023-03-26T21:10:18;8.80;;;4.60;;
41946;SDS011;27638;42.184;24.848;2023-03-26T21:15:51;7.80;;;4.57;;
41946;SDS011;27638;42.184;24.848;2023-03-26T21:18:16;8.10;;;4.10;;
41946;SDS011;27638;42.184;24.848;2023-03-26T21:20:43;9.00;;;3.97;;
41946;SDS011;27638;42.184;24.848;2023-03-26T21:23:15;6.28;;;4.03;;
41946;SDS011;27638;42.184;24.848;2023-03-26T21:28:33;5.32;;;3.85;;
41946;SDS011;27638;42.184;24.848;2023-03-26T21:31:03;6.80;;;3.95;;
41946;SDS011;27638;42.184;24.848;2023-03-26T21:33:29;4.60;;;3.42;;
41946;SDS011;27638;42.184;24.848;2023-03-26T21:35:55;6.32;;;3.55;;
41946;SDS011;27638;42.184;24.848;2023-03-26T21:38:23;5.65;;;3.55;;
41946;SDS011;27638;42.184;24.848;2023-03-26T21:40:50;5.30;;;3.45;;
41946;SDS011;27638;42.184;24.848;2023-03-26T21:43:18;4.93;;;2.95;;
41946;SDS011;27638;42.184;24.848;2023-03-26T21:45:45;6.05;;;3.08;;
41946;SDS011;27638;42.184;24.848;2023-03-26T21:48:12;4.55;;;2.33;;
41946;SDS011;27638;42.184;24.848;2023-03-26T21:50:39;5.03;;;3.20;;
41946;SDS011;27638;42.184;24.848;2023-03-26T21:53:04;4.05;;;2.45;;
41946;SDS011;27638;42.184;24.848;2023-03-26T21:55:32;4.10;;;2.47;;
41946;SDS011;27638;42.184;24.848;2023-03-26T21:58:20;3.42;;;2.17;;